< < Back
Terminal Aerodrome Forecast


Current Version              Previous Versions:   1  2  3  4  5  6  7  8  9  

Terminal Aerodrome Forecast

044
FTUS44 KMRX 202320
TAFCHA
TAF
KCHA 202320Z 2100/2124 VRB04KT P6SM SCT150 BKN250
     FM211400 22006KT P6SM SCT150 BKN250=

Latest METAR

012
SAUS80 KWBC 210200 RRA
MTRCHA
METAR KCHA 210153Z 00000KT 10SM SCT230 17/08 A3013 RMK AO2 SLP198
T01720083


USA.gov is the U.S. government's official web portal to all federal, state and local government web resources and services.